createdAt,value
2022-09-14T00:00:40.281Z,98128.02
2022-09-14T00:03:13.532Z,98137.62
2022-09-14T00:05:46.789Z,98128.05
2022-09-14T00:08:21.474Z,98135.86
2022-09-14T00:10:54.642Z,98127.14
2022-09-14T00:13:27.780Z,98128.02
2022-09-14T00:16:05.885Z,98127.16
2022-09-14T00:18:39.213Z,98117.50
2022-09-14T00:21:14.982Z,98120.91
2022-09-14T00:23:48.124Z,98117.41
2022-09-14T00:26:23.503Z,98108.80
2022-09-14T00:28:58.571Z,98093.27
2022-09-14T00:31:32.295Z,98108.12
2022-09-14T00:34:06.585Z,98105.56
2022-09-14T00:36:43.640Z,98110.02
2022-09-14T00:39:18.792Z,98099.67
2022-09-14T00:41:53.460Z,98108.42
2022-09-14T00:45:14.876Z,98101.45
2022-09-14T00:47:53.347Z,98092.80
2022-09-14T00:50:26.845Z,98098.92
2022-09-14T00:52:59.965Z,98095.43
2022-09-14T00:55:34.385Z,98094.50
2022-09-14T00:58:07.581Z,98085.75
2022-09-14T01:00:40.699Z,98083.11
2022-09-14T01:03:13.826Z,98084.05
2022-09-14T01:05:54.988Z,98078.00
2022-09-14T01:08:57.305Z,98078.02
2022-09-14T01:11:55.697Z,98075.41
2022-09-14T01:14:35.239Z,98077.20
2022-09-14T01:17:11.807Z,98065.84
2022-09-14T01:20:05.437Z,98073.70
2022-09-14T01:22:41.956Z,98068.42
2022-09-14T01:25:20.561Z,98067.52
2022-09-14T01:27:54.097Z,98070.98
2022-09-14T01:30:28.679Z,98057.00
2022-09-14T01:33:05.014Z,98064.05
2022-09-14T01:35:41.181Z,98060.61
2022-09-14T01:38:17.594Z,98053.70
2022-09-14T01:43:37.165Z,98052.69
2022-09-14T01:46:16.633Z,98039.68
2022-09-14T01:48:52.784Z,98051.97
2022-09-14T01:51:29.193Z,98037.20
2022-09-14T01:54:05.257Z,98048.59
2022-09-14T01:56:41.665Z,98040.91
2022-09-14T01:59:18.319Z,98032.30
2022-09-14T02:01:54.333Z,98027.95
2022-09-14T02:04:32.706Z,98032.34
2022-09-14T02:07:06.186Z,98030.64
2022-09-14T02:09:39.854Z,98019.34
2022-09-14T02:12:13.260Z,98028.95
2022-09-14T02:14:47.537Z,98013.34
2022-09-14T02:17:21.175Z,98016.83
2022-09-14T02:19:57.516Z,98022.92
2022-09-14T02:22:32.377Z,98022.05
2022-09-14T02:25:06.610Z,98015.97
2022-09-14T02:27:39.710Z,98021.20
2022-09-14T02:30:14.639Z,97991.67
2022-09-14T02:32:53.913Z,98018.58
2022-09-14T02:35:31.827Z,98007.26
2022-09-14T02:38:04.971Z,98003.83
2022-09-14T02:40:41.835Z,98003.75
2022-09-14T02:43:21.516Z,98001.22
2022-09-14T02:45:59.138Z,98001.27
2022-09-14T02:48:37.772Z,97995.23
2022-09-14T02:51:16.233Z,97995.28
2022-09-14T02:53:52.728Z,97990.98
2022-09-14T02:56:28.420Z,97989.25
2022-09-14T02:59:01.567Z,97998.81
2022-09-14T03:01:34.857Z,97990.16
2022-09-14T03:04:08.019Z,97984.89
2022-09-14T03:06:41.149Z,97987.55
2022-09-14T03:09:14.242Z,97984.95
2022-09-14T03:11:47.408Z,97982.33
2022-09-14T03:14:20.577Z,97979.70
2022-09-14T03:16:53.690Z,97970.98
2022-09-14T03:19:26.915Z,97974.50
2022-09-14T03:22:00.234Z,97977.94
2022-09-14T03:24:33.539Z,97974.50
2022-09-14T03:27:07.194Z,97976.20
2022-09-14T03:29:40.363Z,97964.89
2022-09-14T03:32:13.708Z,97977.11
2022-09-14T03:34:46.862Z,97965.79
2022-09-14T03:37:20.081Z,97963.16
2022-09-14T03:39:54.451Z,97964.94
2022-09-14T03:42:27.590Z,97966.65
2022-09-14T03:45:00.729Z,97950.91
2022-09-14T03:47:34.544Z,97957.86
2022-09-14T03:50:10.208Z,97950.89
2022-09-14T03:52:43.497Z,97958.72
2022-09-14T03:55:16.705Z,97960.45
2022-09-14T03:57:50.592Z,97950.83
2022-09-14T04:00:25.083Z,97959.55
2022-09-14T04:02:59.975Z,97962.18
2022-09-14T04:05:33.177Z,97958.72
2022-09-14T04:08:06.740Z,97947.41
2022-09-14T04:10:48.021Z,97943.87
2022-09-14T04:13:39.225Z,97948.09
2022-09-14T04:16:19.819Z,97953.45
2022-09-14T04:19:13.700Z,97925.59
2022-09-14T04:21:58.159Z,97954.30
2022-09-14T04:24:43.002Z,97951.66
2022-09-14T04:27:20.420Z,97941.19
2022-09-14T04:29:55.177Z,97953.34
2022-09-14T04:32:34.373Z,97952.52
2022-09-14T04:35:06.772Z,97948.13
2022-09-14T04:37:39.965Z,97944.55
2022-09-14T04:40:15.195Z,97954.11
2022-09-14T04:42:48.412Z,97945.42
2022-09-14T04:45:21.645Z,97948.89
2022-09-14T04:47:55.671Z,97940.12
2022-09-14T04:50:28.720Z,97947.96
2022-09-14T04:53:03.426Z,97941.80
2022-09-14T04:55:36.586Z,97945.27
2022-09-14T04:58:10.533Z,97952.25
2022-09-14T05:00:43.716Z,97946.09
2022-09-14T05:03:17.395Z,97951.28
2022-09-14T05:05:50.722Z,97948.62
2022-09-14T05:08:23.928Z,97953.75
2022-09-14T05:10:58.597Z,97948.38
2022-09-14T05:13:32.919Z,97945.58
2022-09-14T05:16:10.989Z,97949.71
2022-09-14T05:18:46.194Z,97947.81
2022-09-14T05:21:22.503Z,97949.28
2022-09-14T05:24:03.154Z,97947.48
2022-09-14T05:26:36.593Z,97948.30
2022-09-14T05:29:11.939Z,97947.34
2022-09-14T05:31:46.821Z,97957.77
2022-09-14T05:34:20.518Z,97945.44
2022-09-14T05:36:53.864Z,97947.98
2022-09-14T05:39:27.390Z,97959.26
2022-09-14T05:42:01.157Z,97952.22
2022-09-14T05:44:36.165Z,97946.84
2022-09-14T05:47:09.591Z,97947.66
2022-09-14T05:49:43.071Z,97946.62
2022-09-14T05:52:16.393Z,97943.70
2022-09-14T05:54:49.589Z,97947.89
2022-09-14T05:57:22.861Z,97940.72
2022-09-14T05:59:56.269Z,97941.41
2022-09-14T06:02:29.956Z,97941.53
2022-09-14T06:05:03.136Z,97947.86
2022-09-14T06:07:37.617Z,97939.12
2022-09-14T06:10:12.407Z,97940.77
2022-09-14T06:12:50.244Z,97932.87
2022-09-14T06:15:24.758Z,97931.09
2022-09-14T06:17:57.881Z,97929.44
2022-09-14T06:20:30.979Z,97937.14
2022-09-14T06:23:04.110Z,97935.41
2022-09-14T06:25:37.224Z,97939.92
2022-09-14T06:28:10.366Z,97933.04
2022-09-14T06:30:45.859Z,97928.92
2022-09-14T06:33:19.496Z,97926.34
2022-09-14T06:36:00.418Z,97930.81
2022-09-14T06:38:34.245Z,97935.20
2022-09-14T06:41:10.593Z,97945.63
2022-09-14T06:43:44.653Z,97939.55
2022-09-14T06:46:19.859Z,97932.66
2022-09-14T06:48:55.663Z,97932.58
2022-09-14T06:51:31.823Z,97916.64
2022-09-14T06:54:06.239Z,97928.64
2022-09-14T06:56:41.150Z,97925.02
2022-09-14T06:59:16.277Z,97927.47
2022-09-14T07:01:49.959Z,97934.36
2022-09-14T07:04:25.050Z,97923.84
2022-09-14T07:06:58.229Z,97924.89
2022-09-14T07:09:31.974Z,97931.78
2022-09-14T07:12:05.681Z,97923.88
2022-09-14T07:14:39.375Z,97931.73
2022-09-14T07:17:14.270Z,97926.50
2022-09-14T07:19:47.405Z,97916.56
2022-09-14T07:22:20.688Z,97923.86
2022-09-14T07:24:53.824Z,97917.84
2022-09-14T07:27:27.071Z,97920.81
2022-09-14T07:30:00.230Z,97906.50
2022-09-14T07:32:34.728Z,97911.81
2022-09-14T07:35:09.108Z,97922.59
2022-09-14T07:37:43.120Z,97885.19
2022-09-14T07:40:16.361Z,97909.12
2022-09-14T07:42:57.402Z,97912.77
2022-09-14T07:45:28.676Z,97894.19
2022-09-14T07:48:01.886Z,97900.83
2022-09-14T07:50:35.084Z,97894.39
2022-09-14T07:53:08.306Z,97895.47
2022-09-14T07:55:42.485Z,97897.37
2022-09-14T07:58:15.758Z,97898.59
2022-09-14T08:00:48.918Z,97899.67
2022-09-14T08:03:21.353Z,97904.12
2022-09-14T08:06:02.010Z,97896.40
2022-09-14T08:08:36.128Z,97893.03
2022-09-14T08:11:11.344Z,97894.71
2022-09-14T08:13:45.577Z,97897.56
2022-09-14T08:16:19.323Z,97896.86
2022-09-14T08:18:55.775Z,97907.47
2022-09-14T08:21:28.985Z,97892.61
2022-09-14T08:24:02.601Z,97901.44
2022-09-14T08:26:37.443Z,97891.67
2022-09-14T08:29:10.041Z,97908.33
2022-09-14T08:31:46.075Z,97897.84
2022-09-14T08:34:19.778Z,97894.33
2022-09-14T08:36:52.306Z,97895.88
2022-09-14T08:39:24.906Z,97887.92
2022-09-14T08:44:43.359Z,97889.88
2022-09-14T08:47:19.339Z,97894.38
2022-09-14T08:49:54.710Z,97888.20
2022-09-14T08:52:31.318Z,97880.94
2022-09-14T08:55:05.714Z,97883.52
2022-09-14T08:57:41.517Z,97881.44
2022-09-14T09:00:19.290Z,97874.94
2022-09-14T09:02:55.691Z,97875.67
2022-09-14T09:05:38.017Z,97866.36
2022-09-14T09:08:17.002Z,97879.70
2022-09-14T09:10:51.469Z,97883.27
2022-09-14T09:13:26.821Z,97879.76
2022-09-14T09:18:47.141Z,97874.38
2022-09-14T09:21:22.469Z,97878.36
2022-09-14T09:23:59.261Z,97880.03
2022-09-14T09:26:34.037Z,97869.48
2022-09-14T09:29:07.433Z,97876.66
2022-09-14T09:31:59.691Z,97872.56
2022-09-14T09:34:35.534Z,97866.98
2022-09-14T09:37:22.031Z,97862.28
2022-09-14T09:39:55.107Z,97873.09
2022-09-14T09:42:31.343Z,97870.80
2022-09-14T09:45:06.906Z,97869.72
2022-09-14T09:47:42.495Z,97874.58
2022-09-14T09:50:22.527Z,97861.98
2022-09-14T09:52:58.250Z,97869.70
2022-09-14T09:55:37.000Z,97873.81
2022-09-14T09:58:25.073Z,97852.59
2022-09-14T10:01:03.628Z,97867.37
2022-09-14T10:03:40.645Z,97867.16
2022-09-14T10:06:16.403Z,97873.11
2022-09-14T10:08:50.779Z,97873.73
2022-09-14T10:11:33.731Z,97870.21
2022-09-14T10:14:09.240Z,97863.28
2022-09-14T10:16:43.268Z,97866.23
2022-09-14T10:19:18.799Z,97868.05
2022-09-14T10:22:26.498Z,97871.48
2022-09-14T10:25:02.696Z,97870.62
2022-09-14T10:27:40.677Z,97866.42
2022-09-14T10:30:19.324Z,97860.44
2022-09-14T10:32:56.935Z,97873.55
2022-09-14T10:35:36.994Z,97871.83
2022-09-14T10:38:18.287Z,97872.61
2022-09-14T10:40:56.296Z,97889.20
2022-09-14T10:43:33.034Z,97883.80
2022-09-14T10:46:09.352Z,97878.36
2022-09-14T10:49:14.395Z,97875.09
2022-09-14T10:51:57.652Z,97874.60
2022-09-14T10:55:01.552Z,97876.58
2022-09-14T10:57:39.980Z,97880.14
2022-09-14T11:00:18.798Z,97873.02
2022-09-14T11:03:15.335Z,97871.15
2022-09-14T11:05:51.962Z,97880.89
2022-09-14T11:08:29.256Z,97875.59
2022-09-14T11:11:14.220Z,97885.29
2022-09-14T11:14:00.237Z,97876.73
2022-09-14T11:16:52.374Z,97887.45
2022-09-14T11:19:31.074Z,97882.36
2022-09-14T11:22:08.478Z,97883.48
2022-09-14T11:24:45.042Z,97877.39
2022-09-14T11:27:23.517Z,97873.94
2022-09-14T11:30:00.207Z,97879.13
2022-09-14T11:32:38.255Z,97877.86
2022-09-14T11:35:19.536Z,97874.95
2022-09-14T11:37:56.824Z,97867.56
2022-09-14T11:40:32.800Z,97868.31
2022-09-14T11:43:08.311Z,97859.61
2022-09-14T11:45:45.154Z,97864.76
2022-09-14T11:48:42.306Z,97871.33
2022-09-14T11:51:01.281Z,97870.50
2022-09-14T11:53:36.372Z,97871.09
2022-09-14T11:56:18.602Z,97866.33
2022-09-14T11:58:52.278Z,97861.72
2022-09-14T12:01:36.703Z,97862.62
2022-09-14T12:04:19.890Z,97866.33
2022-09-14T12:06:57.680Z,97857.82
2022-09-14T12:09:46.216Z,97868.52
2022-09-14T12:12:40.128Z,97868.42
2022-09-14T12:15:32.362Z,97866.48
2022-09-14T12:18:34.292Z,97861.17
2022-09-14T12:21:10.462Z,97859.29
2022-09-14T12:23:50.897Z,97856.47
2022-09-14T12:26:43.419Z,97854.69
2022-09-14T12:32:42.084Z,97848.62
2022-09-14T12:39:07.301Z,97853.42
2022-09-14T12:45:47.111Z,97843.70
2022-09-14T12:49:04.415Z,97842.47
2022-09-14T12:51:57.484Z,97837.17
2022-09-14T12:54:51.686Z,97845.77
2022-09-14T12:57:52.052Z,97836.65
2022-09-14T13:00:58.549Z,97838.16
2022-09-14T13:04:19.589Z,97836.31
2022-09-14T13:06:53.874Z,97832.73
2022-09-14T13:09:34.224Z,97827.59
2022-09-14T13:12:37.080Z,97825.70
2022-09-14T13:15:22.914Z,97825.33
2022-09-14T13:18:05.021Z,97832.53
2022-09-14T13:23:24.223Z,97829.96
2022-09-14T13:25:57.709Z,97826.82
2022-09-14T13:28:32.817Z,97833.95
2022-09-14T13:31:06.543Z,97841.83
2022-09-14T13:33:39.800Z,97828.66
2022-09-14T13:36:16.575Z,97832.91
2022-09-14T13:38:50.448Z,97833.77
2022-09-14T13:41:24.945Z,97828.52
2022-09-14T13:44:00.834Z,97827.67
2022-09-14T13:46:37.566Z,97829.98
2022-09-14T13:49:11.171Z,97834.02
2022-09-14T13:51:45.136Z,97829.28
2022-09-14T13:54:30.453Z,97826.94
2022-09-14T13:57:17.561Z,97825.03
2022-09-14T14:03:05.716Z,97824.37
2022-09-14T14:05:45.313Z,97829.23
2022-09-14T14:08:32.848Z,97824.75
2022-09-14T14:11:09.160Z,97829.28
2022-09-14T14:13:44.524Z,97825.95
2022-09-14T14:16:20.816Z,97825.16
2022-09-14T14:18:55.954Z,97818.91
2022-09-14T14:21:32.615Z,97820.01
2022-09-14T14:24:27.906Z,97820.13
2022-09-14T14:27:01.127Z,97822.94
2022-09-14T14:29:34.450Z,97821.53
2022-09-14T14:32:08.033Z,97822.52
2022-09-14T14:34:41.222Z,97824.46
2022-09-14T14:37:16.806Z,97833.38
2022-09-14T14:39:52.095Z,97830.92
2022-09-14T14:42:25.994Z,97830.02
2022-09-14T14:44:59.210Z,97820.83
2022-09-14T14:47:34.926Z,97830.19
2022-09-14T14:50:14.659Z,97833.38
2022-09-14T14:52:48.890Z,97828.78
2022-09-14T14:55:23.972Z,97827.72
2022-09-14T14:58:00.579Z,97823.25
2022-09-14T15:00:36.542Z,97816.28
2022-09-14T15:03:10.455Z,97819.69
2022-09-14T15:05:44.974Z,97817.80
2022-09-14T15:08:20.747Z,97822.11
2022-09-14T15:10:59.050Z,97820.36
2022-09-14T15:13:32.367Z,97823.89
2022-09-14T15:16:06.159Z,97822.20
2022-09-14T15:18:39.361Z,97824.88
2022-09-14T15:21:13.024Z,97827.81
2022-09-14T15:23:46.213Z,97829.13
2022-09-14T15:26:19.417Z,97832.99
2022-09-14T15:28:52.659Z,97820.94
2022-09-14T15:31:26.098Z,97821.98
2022-09-14T15:33:59.718Z,97823.80
2022-09-14T15:36:40.716Z,97815.26
2022-09-14T15:39:15.448Z,97818.80
2022-09-14T15:41:49.322Z,97819.75
2022-09-14T15:44:23.304Z,97822.18
2022-09-14T15:46:58.240Z,97814.95
2022-09-14T15:49:31.480Z,97824.39
2022-09-14T15:52:05.507Z,97823.41
2022-09-14T15:54:39.848Z,97824.14
2022-09-14T15:57:14.917Z,97822.31
2022-09-14T15:59:48.319Z,97818.75
2022-09-14T16:02:22.095Z,97814.45
2022-09-14T16:04:55.661Z,97815.33
2022-09-14T16:07:29.905Z,97816.23
2022-09-14T16:10:03.119Z,97810.36
2022-09-14T16:12:36.384Z,97808.81
2022-09-14T16:15:13.485Z,97808.86
2022-09-14T16:17:48.086Z,97807.83
2022-09-14T16:20:22.009Z,97807.63
2022-09-14T16:22:57.622Z,97808.36
2022-09-14T16:25:30.685Z,97809.95
2022-09-14T16:28:04.659Z,97802.02
2022-09-14T16:30:40.956Z,97796.93
2022-09-14T16:33:16.183Z,97802.33
2022-09-14T16:35:49.555Z,97793.58
2022-09-14T16:38:23.771Z,97796.93
2022-09-14T16:41:02.691Z,97800.35
2022-09-14T16:43:39.526Z,97788.13
2022-09-14T16:46:18.951Z,97795.83
2022-09-14T16:48:53.506Z,97780.94
2022-09-14T16:51:30.411Z,97784.45
2022-09-14T16:54:08.098Z,97782.00
2022-09-14T16:56:43.514Z,97790.11
2022-09-14T16:59:25.599Z,97786.77
2022-09-14T17:01:58.994Z,97779.98
2022-09-14T17:04:32.368Z,97784.44
2022-09-14T17:07:05.802Z,97783.70
2022-09-14T17:09:41.445Z,97774.99
2022-09-14T17:12:14.570Z,97771.45
2022-09-14T17:14:48.310Z,97767.89
2022-09-14T17:17:24.855Z,97767.98
2022-09-14T17:19:58.032Z,97768.83
2022-09-14T17:22:31.412Z,97763.48
2022-09-14T17:25:04.808Z,97763.38
2022-09-14T17:27:38.857Z,97762.38
2022-09-14T17:30:14.877Z,97760.55
2022-09-14T17:32:49.698Z,97760.70
2022-09-14T17:35:22.901Z,97760.80
2022-09-14T17:37:56.307Z,97760.80
2022-09-14T17:40:32.636Z,97758.33
2022-09-14T17:43:09.546Z,97760.23
2022-09-14T17:45:48.986Z,97761.31
2022-09-14T17:48:27.706Z,97752.61
2022-09-14T17:51:01.126Z,97752.66
2022-09-14T17:53:35.966Z,97756.38
2022-09-14T17:56:11.392Z,97748.56
2022-09-14T17:58:45.304Z,97756.47
2022-09-14T18:01:26.370Z,97745.09
2022-09-14T18:04:02.692Z,97738.17
2022-09-14T18:06:38.549Z,97739.12
2022-09-14T18:09:25.271Z,97744.35
2022-09-14T18:11:59.367Z,97746.92
2022-09-14T18:14:32.561Z,97737.23
2022-09-14T18:17:06.110Z,97736.36
2022-09-14T18:19:39.359Z,97745.98
2022-09-14T18:22:12.729Z,97740.01
2022-09-14T18:24:45.960Z,97737.39
2022-09-14T18:27:19.141Z,97735.75
2022-09-14T18:29:52.681Z,97740.99
2022-09-14T18:32:27.253Z,97736.60
2022-09-14T18:35:06.257Z,97735.84
2022-09-14T18:37:39.473Z,97731.50
2022-09-14T18:40:16.091Z,97729.67
2022-09-14T18:42:48.530Z,97734.12
2022-09-14T18:45:22.086Z,97727.16
2022-09-14T18:47:55.522Z,97725.37
2022-09-14T18:51:06.783Z,97720.13
2022-09-14T18:56:44.753Z,97698.66
2022-09-14T18:59:18.013Z,97720.94
2022-09-14T19:01:51.526Z,97724.43
2022-09-14T19:04:24.572Z,97718.41
2022-09-14T19:06:57.546Z,97719.30
2022-09-14T19:09:30.771Z,97711.44
2022-09-14T19:12:04.564Z,97706.20
2022-09-14T19:14:37.798Z,97714.02
2022-09-14T19:17:11.280Z,97703.54
2022-09-14T19:19:44.567Z,97707.05
2022-09-14T19:22:17.736Z,97694.73
2022-09-14T19:24:50.908Z,97704.23
2022-09-14T19:27:24.084Z,97697.16
2022-09-14T19:29:57.278Z,97691.97
2022-09-14T19:32:30.399Z,97695.48
2022-09-14T19:35:03.599Z,97696.22
2022-09-14T19:37:37.212Z,97691.71
2022-09-14T19:40:15.359Z,97694.22
2022-09-14T19:42:48.929Z,97689.83
2022-09-14T19:45:22.307Z,97689.92
2022-09-14T19:47:55.508Z,97682.13
2022-09-14T19:50:28.939Z,97684.80
2022-09-14T19:53:04.586Z,97689.92
2022-09-14T19:55:37.946Z,97690.66
2022-09-14T19:58:13.099Z,97688.11
2022-09-14T20:00:47.430Z,97684.75
2022-09-14T20:03:21.827Z,97679.61
2022-09-14T20:06:02.999Z,97684.91
2022-09-14T20:08:37.517Z,97685.05
2022-09-14T20:11:15.643Z,97684.22
2022-09-14T20:13:48.797Z,97681.53
2022-09-14T20:16:25.995Z,97680.45
2022-09-14T20:19:01.401Z,97677.72
2022-09-14T20:21:36.116Z,97679.25
2022-09-14T20:24:16.270Z,97676.47
2022-09-14T20:26:47.972Z,97679.77
2022-09-14T20:29:23.206Z,97676.16
2022-09-14T20:31:56.491Z,97669.12
2022-09-14T20:34:30.562Z,97668.22
2022-09-14T20:37:04.560Z,97668.17
2022-09-14T20:39:38.530Z,97665.55
2022-09-14T20:42:12.353Z,97665.55
2022-09-14T20:44:45.671Z,97658.53
2022-09-14T20:47:19.085Z,97659.47
2022-09-14T20:49:52.650Z,97661.98
2022-09-14T20:52:26.087Z,97669.73
2022-09-14T20:54:59.365Z,97671.52
2022-09-14T20:57:35.655Z,97661.87
2022-09-14T21:00:11.938Z,97664.48
2022-09-14T21:02:45.305Z,97658.41
2022-09-14T21:05:18.733Z,97663.55
2022-09-14T21:07:56.311Z,97658.31
2022-09-14T21:10:29.603Z,97659.98
2022-09-14T21:13:03.164Z,97658.20
2022-09-14T21:15:38.219Z,97654.73
2022-09-14T21:18:11.912Z,97655.63
2022-09-14T21:20:45.414Z,97647.70
2022-09-14T21:23:18.606Z,97638.05
2022-09-14T21:25:58.114Z,97634.44
2022-09-14T21:28:31.518Z,97636.17
2022-09-14T21:31:09.724Z,97632.75
2022-09-14T21:33:45.205Z,97631.08
2022-09-14T21:36:20.473Z,97625.96
2022-09-14T21:38:55.153Z,97637.45
2022-09-14T21:41:30.818Z,97627.96
2022-09-14T21:44:04.643Z,97629.86
2022-09-14T21:46:38.541Z,97635.17
2022-09-14T21:49:15.386Z,97631.75
2022-09-14T21:51:49.076Z,97623.94
2022-09-14T21:54:22.924Z,97624.79
2022-09-14T21:56:56.456Z,97624.01
2022-09-14T21:59:29.962Z,97623.27
2022-09-14T22:02:03.227Z,97623.33
2022-09-14T22:04:36.574Z,97613.75
2022-09-14T22:07:10.207Z,97613.68
2022-09-14T22:09:44.072Z,97612.80
2022-09-14T22:12:18.190Z,97607.56
2022-09-14T22:14:52.406Z,97610.23
2022-09-14T22:17:27.430Z,97609.50
2022-09-14T22:20:06.553Z,97604.44
2022-09-14T22:22:43.856Z,97597.50
2022-09-14T22:25:17.897Z,97597.41
2022-09-14T22:27:51.610Z,97595.51
2022-09-14T22:30:24.958Z,97596.36
2022-09-14T22:32:58.613Z,97586.03
2022-09-14T22:35:32.141Z,97585.30
2022-09-14T22:38:07.210Z,97580.23
2022-09-14T22:40:40.699Z,97582.95
2022-09-14T22:43:13.934Z,97577.76
2022-09-14T22:45:47.729Z,97573.37
2022-09-14T22:48:21.617Z,97574.21
2022-09-14T22:50:57.512Z,97568.13
2022-09-14T22:53:31.808Z,97570.70
2022-09-14T22:56:11.710Z,97571.64
2022-09-14T22:58:45.983Z,97561.27
2022-09-14T23:01:22.684Z,97564.05
2022-09-14T23:03:59.298Z,97553.63
2022-09-14T23:06:35.182Z,97556.30
2022-09-14T23:09:10.035Z,97563.32
2022-09-14T23:11:44.918Z,97559.08
2022-09-14T23:14:19.068Z,97559.97
2022-09-14T23:16:52.650Z,97554.64
2022-09-14T23:19:26.069Z,97553.74
2022-09-14T23:22:01.087Z,97546.77
2022-09-14T23:24:34.639Z,97548.67
2022-09-14T23:27:08.437Z,97542.64
2022-09-14T23:29:41.859Z,97543.48
2022-09-14T23:32:15.176Z,97544.27
2022-09-14T23:34:50.037Z,97543.32
2022-09-14T23:37:23.542Z,97539.76
2022-09-14T23:39:57.207Z,97545.72
2022-09-14T23:42:30.592Z,97544.67
2022-09-14T23:45:04.343Z,97542.88
2022-09-14T23:47:37.589Z,97549.89
2022-09-14T23:50:12.266Z,97544.67
2022-09-14T23:52:45.541Z,97542.20
2022-09-14T23:55:19.027Z,97538.59
2022-09-14T23:57:52.642Z,97533.25
